Aviation Digital Data Service (ADDS)

Output produced by METARs form (1204 UTC 21 December 2014)
found at http://aviationweather.gov/adds/metars/
 
KMSS 211138Z 2112/2212 07005KT P6SM SCT006 OVC020 
     TEMPO 2112/2115 5SM BR BKN006 
     FM211600 VRB03KT P6SM OVC020 
     FM220000 07003KT 5SM BR OVC008